CYLW

Kelowna International Airport

Kelowna, British Columbia, Canada
METAR CYLW 160100Z AUTO 36002KT 9SM OVC220 01/M02 A3000 RMK SLP176
Observed Flight Rules
Dec-16 @ 01:00 UTC (30 minutes ago) Visual Flight Rules
Wind Visibility Clouds
360° at 2 knots 9 miles
  • Overcast at 22,000' AGL
Temperatures Readings
Current 1°C / 34°F
Dewpoint -2°C / 28°F
Humidity 81%
Altimeter 30" Hg
Pressure 1017.6 hPa
Elevation 430
METAR CYLW 160100Z AUTO 36002KT 9SM OVC220 01/M02 A3000 RMK SLP176
Observed Flight Rules
Dec-16 @ 01:00 UTC
(30 minutes ago)
VFR
Wind Visibility
360° at 2 knots 9 miles
Clouds
  • Overcast at 22,000' AGL
Temperature Dewpoint
1°C / 34°F -2°C / 28°F
Humidity Altimeter Pressure
81% 30" Hg 1017.6 hPa